map of KEM home
KEM - Airport
Location
City:  Kemi-Tornio, Lappi (Lappland, Lapland), Finland
ICAO:EFKE
IATA:KEM

Details
Type:Airport (Aerodrome, Airfield)
Use:Public/Civil, International (customs port of entry)
Latitude:6546'55"N (65.781889)
Longitude:2435'57"E (24.599100)
Datum:WGS 1984
Elevation:61 ft (19 m)
Variation:10.98E (WMM2015v2 magnetic declination)
0.23 annual change
Runways:1
Longest:8212 × 157 ft (2503 × 48 m), paved

Time
Time Zone:UTC+2 (DST+3)
Local Time:

Weather
METAR:EFKE 041350Z 06008KT 030V090 1800 SN FEW013 BKN016 OVC020 M11/M14 Q1012

Related Locations
Nearby:
Farthest:NZTB: 11332 mi / 18238 km
Terra Nova Bay [Mario Zucchelli Station], AQ

Find:

   beyond  
but within

Other Information
Maps:
NOTAMs:
Links:
Sources:

  
  • flag of Finland
  

Sectional Chart

Flight Planning
at skyvector.com

Satellite Image

Google Maps Satellite view

 

Copyright © 2004-2019 Karl L. Swartz. All rights reserved.
The Great Circle Mapper name and logo are trademarks of the Great Circle Mapper.
All other trademarks mentioned herein belong to their respective owners.
Please see credits for attibutions and further copyright information.

  Follow gcmap on Facebook Follow gcmap on Twitter GCmap on LinkedIn

hCard Microformat

Geo Microformat